createdAt,value
2019-03-17T00:00:10.427Z,0.00
2019-03-17T00:01:12.212Z,0.00
2019-03-17T00:02:10.351Z,0.00
2019-03-17T00:03:10.346Z,0.00
2019-03-17T00:04:10.333Z,0.00
2019-03-17T00:05:10.318Z,0.00
2019-03-17T00:06:10.866Z,0.00
2019-03-17T00:07:10.311Z,0.00
2019-03-17T00:08:10.317Z,0.00
2019-03-17T00:09:10.268Z,0.00
2019-03-17T00:10:10.304Z,0.00
2019-03-17T00:11:10.288Z,0.00
2019-03-17T00:12:10.233Z,0.00
2019-03-17T00:13:10.231Z,0.00
2019-03-17T00:14:10.360Z,0.00
2019-03-17T00:15:10.229Z,0.00
2019-03-17T00:16:10.211Z,0.00
2019-03-17T00:17:10.248Z,0.00
2019-03-17T00:18:10.165Z,0.00
2019-03-17T00:19:10.174Z,0.00
2019-03-17T00:20:10.145Z,0.00
2019-03-17T00:21:10.206Z,0.00
2019-03-17T00:22:10.186Z,0.00
2019-03-17T00:23:10.118Z,0.00
2019-03-17T00:24:10.101Z,0.00
2019-03-17T00:25:10.419Z,0.00
2019-03-17T00:26:10.074Z,0.00
2019-03-17T00:27:10.086Z,0.00
2019-03-17T00:28:10.060Z,0.00
2019-03-17T00:29:10.200Z,0.00
2019-03-17T00:30:10.086Z,0.00
2019-03-17T00:31:10.038Z,0.00
2019-03-17T00:32:10.013Z,0.00
2019-03-17T00:33:10.014Z,0.00
2019-03-17T00:34:09.996Z,0.00
2019-03-17T00:35:10.062Z,0.00
2019-03-17T00:36:10.097Z,0.00
2019-03-17T00:37:09.952Z,0.00
2019-03-17T00:38:09.954Z,0.00
2019-03-17T00:39:09.937Z,0.00
2019-03-17T00:40:09.973Z,0.00
2019-03-17T00:41:09.907Z,0.00
2019-03-17T00:42:09.921Z,0.00
2019-03-17T00:43:09.886Z,0.00
2019-03-17T00:44:09.898Z,0.00
2019-03-17T00:45:11.463Z,0.00
2019-03-17T00:46:09.903Z,0.00
2019-03-17T00:47:10.891Z,0.00
2019-03-17T00:48:09.846Z,0.00
2019-03-17T00:49:09.822Z,0.00
2019-03-17T00:50:09.817Z,0.00
2019-03-17T00:51:09.832Z,0.00
2019-03-17T00:52:09.848Z,0.00
2019-03-17T00:53:09.770Z,0.00
2019-03-17T00:54:09.780Z,0.00
2019-03-17T00:55:09.766Z,0.00
2019-03-17T00:56:09.769Z,0.00
2019-03-17T00:57:09.737Z,0.00
2019-03-17T00:58:09.714Z,0.00
2019-03-17T00:59:09.709Z,0.00
2019-03-17T01:00:09.697Z,0.00
2019-03-17T01:01:09.723Z,0.00
2019-03-17T01:02:09.682Z,0.00
2019-03-17T01:03:09.666Z,0.00
2019-03-17T01:04:09.652Z,0.00
2019-03-17T01:05:09.653Z,0.00
2019-03-17T01:06:09.641Z,0.00
2019-03-17T01:07:09.630Z,0.00
2019-03-17T01:08:09.626Z,0.00
2019-03-17T01:09:09.602Z,0.00
2019-03-17T01:10:09.685Z,0.00
2019-03-17T01:11:09.572Z,0.00
2019-03-17T01:12:09.651Z,0.00
2019-03-17T01:13:09.558Z,0.00
2019-03-17T01:14:09.535Z,0.00
2019-03-17T01:15:09.527Z,0.00
2019-03-17T01:16:09.526Z,0.00
2019-03-17T01:17:09.508Z,0.00
2019-03-17T01:18:09.499Z,0.00
2019-03-17T01:19:09.490Z,0.00
2019-03-17T01:20:09.467Z,0.00
2019-03-17T01:21:11.240Z,0.00
2019-03-17T01:22:09.565Z,0.00
2019-03-17T01:23:09.446Z,4.00
2019-03-17T01:24:10.445Z,4.00
2019-03-17T01:25:39.859Z,0.00
2019-03-17T01:26:14.235Z,0.00
2019-03-17T01:27:12.818Z,0.00
2019-03-17T01:28:18.635Z,0.00
2019-03-17T01:29:12.720Z,0.00
2019-03-17T01:31:27.818Z,0.00
2019-03-17T01:32:39.915Z,0.00
2019-03-17T01:33:19.996Z,0.00
2019-03-17T01:34:52.228Z,0.00
2019-03-17T01:35:22.390Z,0.00
2019-03-17T01:36:18.904Z,0.00
2019-03-17T01:37:22.353Z,0.00
2019-03-17T01:38:22.942Z,0.00
2019-03-17T01:39:22.312Z,0.00
2019-03-17T01:40:30.306Z,0.00
2019-03-17T01:41:22.372Z,0.00
2019-03-17T01:42:23.064Z,0.00
2019-03-17T01:43:22.859Z,0.00
2019-03-17T01:44:19.458Z,0.00
2019-03-17T01:45:36.792Z,0.00
2019-03-17T01:46:20.589Z,0.00
2019-03-17T01:47:18.666Z,0.00
2019-03-17T01:48:18.698Z,0.00
2019-03-17T01:49:18.602Z,0.00
2019-03-17T01:50:18.816Z,0.00
2019-03-17T01:51:18.473Z,0.00
2019-03-17T01:52:19.374Z,0.00
2019-03-17T01:53:18.880Z,0.00
2019-03-17T01:54:19.801Z,0.00
2019-03-17T01:55:18.860Z,0.00
2019-03-17T01:58:11.048Z,0.00
2019-03-17T01:59:09.531Z,0.00
2019-03-17T02:00:09.517Z,0.00
2019-03-17T02:01:11.754Z,0.00
2019-03-17T02:02:10.236Z,0.00
2019-03-17T02:03:09.648Z,0.00
2019-03-17T02:04:09.338Z,0.00
2019-03-17T02:05:20.928Z,0.00
2019-03-17T02:06:10.281Z,0.00
2019-03-17T02:07:09.359Z,0.00
2019-03-17T02:08:09.254Z,0.00
2019-03-17T02:09:09.274Z,0.00
2019-03-17T02:10:09.233Z,0.00
2019-03-17T02:11:09.214Z,0.00
2019-03-17T02:12:09.514Z,0.00
2019-03-17T02:13:09.826Z,0.00
2019-03-17T02:14:09.281Z,0.00
2019-03-17T02:15:09.200Z,0.00
2019-03-17T02:16:09.190Z,0.00
2019-03-17T02:17:09.200Z,0.00
2019-03-17T02:18:10.441Z,0.00
2019-03-17T02:19:17.940Z,0.00
2019-03-17T02:20:09.255Z,0.00
2019-03-17T02:21:09.097Z,0.00
2019-03-17T02:22:09.094Z,0.00
2019-03-17T02:23:09.938Z,0.00
2019-03-17T02:24:09.197Z,0.00
2019-03-17T02:25:09.101Z,0.00
2019-03-17T02:26:09.065Z,0.00
2019-03-17T02:27:09.646Z,0.00
2019-03-17T02:28:09.227Z,0.00
2019-03-17T02:29:09.083Z,0.00
2019-03-17T02:30:09.038Z,0.00
2019-03-17T02:31:09.007Z,0.00
2019-03-17T02:32:08.997Z,0.00
2019-03-17T02:33:12.580Z,0.00
2019-03-17T02:34:11.953Z,0.00
2019-03-17T02:35:10.820Z,0.00
2019-03-17T02:36:10.429Z,0.00
2019-03-17T02:37:08.983Z,0.00
2019-03-17T02:38:08.979Z,0.00
2019-03-17T02:39:08.958Z,0.00
2019-03-17T02:40:09.644Z,0.00
2019-03-17T02:41:08.971Z,0.00
2019-03-17T02:42:08.930Z,0.00
2019-03-17T02:43:08.881Z,0.00
2019-03-17T02:44:08.888Z,0.00
2019-03-17T02:45:08.834Z,0.00
2019-03-17T02:46:08.833Z,0.00
2019-03-17T02:47:08.833Z,0.00
2019-03-17T02:48:08.885Z,0.00
2019-03-17T02:49:08.839Z,0.00
2019-03-17T02:50:08.778Z,0.00
2019-03-17T02:51:08.766Z,0.00
2019-03-17T02:52:08.751Z,0.00
2019-03-17T02:53:08.741Z,0.00
2019-03-17T02:54:08.748Z,0.00
2019-03-17T02:55:08.739Z,0.00
2019-03-17T02:56:08.715Z,0.00
2019-03-17T02:57:08.698Z,0.00
2019-03-17T02:58:08.702Z,0.00
2019-03-17T02:59:08.676Z,0.00
2019-03-17T03:00:08.723Z,0.00
2019-03-17T03:01:08.690Z,0.00
2019-03-17T03:02:08.725Z,0.00
2019-03-17T03:03:09.857Z,0.00
2019-03-17T03:04:08.627Z,0.00
2019-03-17T03:05:08.724Z,0.00
2019-03-17T03:06:08.665Z,0.00
2019-03-17T03:07:12.326Z,0.00
2019-03-17T03:08:31.289Z,0.00
2019-03-17T03:09:11.686Z,0.00
2019-03-17T03:10:08.579Z,0.00
2019-03-17T03:11:08.561Z,0.00
2019-03-17T03:12:08.585Z,0.00
2019-03-17T03:13:09.637Z,0.00
2019-03-17T03:14:08.518Z,0.00
2019-03-17T03:15:08.628Z,0.00
2019-03-17T03:16:08.502Z,0.00
2019-03-17T03:17:08.532Z,0.00
2019-03-17T03:18:08.459Z,0.00
2019-03-17T03:19:08.579Z,0.00
2019-03-17T03:20:08.437Z,0.00
2019-03-17T03:21:08.448Z,0.00
2019-03-17T03:22:08.420Z,0.00
2019-03-17T03:23:08.417Z,0.00
2019-03-17T03:24:08.444Z,0.00
2019-03-17T03:25:08.382Z,0.00
2019-03-17T03:26:08.389Z,0.00
2019-03-17T03:27:08.356Z,0.00
2019-03-17T03:28:08.359Z,0.00
2019-03-17T03:29:08.367Z,0.00
2019-03-17T03:30:08.327Z,0.00
2019-03-17T03:31:08.324Z,0.00
2019-03-17T03:32:08.303Z,0.00
2019-03-17T03:33:08.296Z,0.00
2019-03-17T03:34:08.288Z,0.00
2019-03-17T03:35:08.303Z,0.00
2019-03-17T03:36:11.415Z,0.00
2019-03-17T03:37:08.247Z,0.00
2019-03-17T03:38:08.309Z,0.00
2019-03-17T03:39:08.293Z,0.00
2019-03-17T03:40:08.217Z,0.00
2019-03-17T03:41:08.224Z,0.00
2019-03-17T03:42:08.193Z,0.00
2019-03-17T03:43:08.181Z,0.00
2019-03-17T03:44:08.167Z,0.00
2019-03-17T03:45:08.190Z,0.00
2019-03-17T03:46:08.203Z,0.00
2019-03-17T03:47:08.138Z,0.00
2019-03-17T03:48:08.121Z,0.00
2019-03-17T03:49:08.119Z,0.00
2019-03-17T03:50:08.109Z,0.00
2019-03-17T03:51:08.089Z,0.00
2019-03-17T03:52:08.099Z,0.00
2019-03-17T03:53:08.064Z,0.00
2019-03-17T03:54:08.053Z,0.00
2019-03-17T03:55:08.254Z,0.00
2019-03-17T03:56:08.045Z,0.00
2019-03-17T03:57:08.029Z,0.00
2019-03-17T03:58:08.017Z,0.00
2019-03-17T03:59:08.014Z,0.00
2019-03-17T04:00:07.988Z,0.00
2019-03-17T04:01:08.010Z,0.00
2019-03-17T04:02:07.987Z,0.00
2019-03-17T04:03:07.970Z,0.00
2019-03-17T04:04:07.943Z,0.00
2019-03-17T04:05:07.942Z,0.00
2019-03-17T04:06:07.937Z,0.00
2019-03-17T04:07:07.926Z,0.00
2019-03-17T04:08:07.913Z,0.00
2019-03-17T04:09:07.900Z,0.00
2019-03-17T04:10:07.874Z,0.00
2019-03-17T04:11:07.878Z,0.00
2019-03-17T04:12:07.860Z,0.00
2019-03-17T04:13:07.855Z,0.00
2019-03-17T04:14:07.838Z,0.00
2019-03-17T04:15:07.831Z,0.00
2019-03-17T04:16:07.822Z,0.00
2019-03-17T04:17:07.831Z,0.00
2019-03-17T04:18:07.795Z,0.00
2019-03-17T04:19:07.817Z,0.00
2019-03-17T04:20:07.807Z,0.00
2019-03-17T04:21:07.779Z,0.00
2019-03-17T04:22:07.753Z,0.00
2019-03-17T04:23:07.755Z,0.00
2019-03-17T04:24:07.747Z,0.00
2019-03-17T04:25:07.733Z,0.00
2019-03-17T04:26:07.715Z,0.00
2019-03-17T04:27:07.685Z,0.00
2019-03-17T04:28:07.685Z,0.00
2019-03-17T04:29:07.664Z,0.00
2019-03-17T04:30:07.668Z,0.00
2019-03-17T04:31:07.671Z,0.00
2019-03-17T04:32:07.635Z,0.00
2019-03-17T04:33:07.620Z,0.00
2019-03-17T04:34:07.611Z,0.00
2019-03-17T04:35:07.601Z,0.00
2019-03-17T04:36:07.605Z,0.00
2019-03-17T04:37:07.581Z,0.00
2019-03-17T04:38:07.580Z,0.00
2019-03-17T04:39:07.563Z,0.00
2019-03-17T04:40:07.557Z,0.00
2019-03-17T04:41:07.639Z,0.00
2019-03-17T04:42:07.537Z,0.00
2019-03-17T04:43:07.531Z,0.00
2019-03-17T04:44:07.500Z,0.00
2019-03-17T04:45:16.343Z,0.00
2019-03-17T04:46:07.474Z,0.00
2019-03-17T04:47:07.476Z,0.00
2019-03-17T04:48:07.449Z,0.00
2019-03-17T04:49:07.435Z,0.00
2019-03-17T04:50:07.428Z,0.00
2019-03-17T04:51:07.598Z,0.00
2019-03-17T04:52:07.407Z,4.00
2019-03-17T04:53:07.416Z,4.00
2019-03-17T04:54:07.383Z,4.00
2019-03-17T04:55:07.374Z,4.00
2019-03-17T04:56:07.381Z,4.00
2019-03-17T04:57:07.403Z,4.00
2019-03-17T04:58:07.352Z,8.00
2019-03-17T04:59:07.371Z,8.00
2019-03-17T05:00:07.323Z,8.00
2019-03-17T05:01:07.329Z,8.00
2019-03-17T05:02:07.331Z,12.00
2019-03-17T05:03:07.292Z,12.00
2019-03-17T05:04:07.288Z,12.00
2019-03-17T05:05:07.263Z,16.00
2019-03-17T05:06:07.262Z,16.00
2019-03-17T05:07:07.267Z,20.00
2019-03-17T05:08:07.245Z,24.00
2019-03-17T05:09:07.225Z,24.00
2019-03-17T05:10:07.232Z,32.00
2019-03-17T05:11:07.204Z,36.00
2019-03-17T05:12:07.193Z,40.00
2019-03-17T05:13:07.198Z,44.00
2019-03-17T05:14:07.156Z,48.00
2019-03-17T05:15:07.177Z,48.00
2019-03-17T05:16:07.133Z,52.00
2019-03-17T05:17:07.143Z,48.00
2019-03-17T05:18:07.111Z,52.00
2019-03-17T05:19:07.101Z,56.00
2019-03-17T05:20:07.092Z,60.00
2019-03-17T05:21:07.097Z,64.00
2019-03-17T05:22:07.079Z,64.00
2019-03-17T05:23:07.075Z,68.00
2019-03-17T05:24:07.120Z,76.00
2019-03-17T05:25:07.061Z,84.00
2019-03-17T05:26:07.032Z,92.00
2019-03-17T05:27:07.031Z,104.00
2019-03-17T05:28:06.998Z,116.00
2019-03-17T05:29:06.990Z,120.00
2019-03-17T05:30:06.982Z,136.00
2019-03-17T05:31:06.967Z,144.00
2019-03-17T05:32:06.971Z,140.00
2019-03-17T05:33:06.951Z,148.00
2019-03-17T05:34:06.937Z,152.00
2019-03-17T05:35:06.919Z,160.00
2019-03-17T05:36:06.912Z,168.00
2019-03-17T05:37:07.176Z,164.00
2019-03-17T05:38:06.897Z,168.00
2019-03-17T05:39:06.903Z,172.00
2019-03-17T05:40:06.883Z,176.00
2019-03-17T05:41:06.859Z,180.00
2019-03-17T05:42:06.864Z,188.00
2019-03-17T05:43:06.987Z,196.00
2019-03-17T05:44:06.857Z,212.00
2019-03-17T05:45:06.844Z,236.00
2019-03-17T05:46:06.802Z,252.00
2019-03-17T05:47:06.862Z,260.00
2019-03-17T05:48:06.775Z,272.00
2019-03-17T05:49:06.773Z,280.00
2019-03-17T05:50:06.756Z,292.00
2019-03-17T05:51:07.445Z,308.00
2019-03-17T05:52:06.729Z,328.00
2019-03-17T05:53:07.055Z,364.00
2019-03-17T05:54:06.710Z,396.00
2019-03-17T05:55:06.713Z,416.00
2019-03-17T05:56:06.697Z,436.00
2019-03-17T05:57:06.689Z,476.00
2019-03-17T05:58:06.674Z,524.00
2019-03-17T05:59:06.702Z,568.00
2019-03-17T06:00:06.654Z,608.00
2019-03-17T06:01:06.657Z,644.00
2019-03-17T06:02:06.622Z,688.00
2019-03-17T06:03:06.631Z,756.00
2019-03-17T06:04:06.661Z,840.00
2019-03-17T06:05:06.592Z,928.00
2019-03-17T06:06:06.582Z,1004.00
2019-03-17T06:07:18.251Z,1028.00
2019-03-17T06:08:07.560Z,1004.00
2019-03-17T06:09:06.544Z,1040.00
2019-03-17T06:10:06.534Z,1020.00
2019-03-17T06:11:06.522Z,984.00
2019-03-17T06:12:06.540Z,996.00
2019-03-17T06:13:06.548Z,1040.00
2019-03-17T06:14:06.654Z,1072.00
2019-03-17T06:15:06.560Z,1104.00
2019-03-17T06:16:06.468Z,1136.00
2019-03-17T06:17:06.453Z,1192.00
2019-03-17T06:18:06.457Z,1256.00
2019-03-17T06:19:06.445Z,1292.00
2019-03-17T06:20:06.501Z,1308.00
2019-03-17T06:21:06.407Z,1336.00
2019-03-17T06:22:06.403Z,1352.00
2019-03-17T06:23:06.411Z,1356.00
2019-03-17T06:24:06.383Z,1388.00
2019-03-17T06:25:06.367Z,1396.00
2019-03-17T06:26:06.351Z,1396.00
2019-03-17T06:27:06.352Z,1376.00
2019-03-17T06:28:06.351Z,1360.00
2019-03-17T06:29:06.317Z,1340.00
2019-03-17T06:30:06.313Z,1288.00
2019-03-17T06:31:06.323Z,1248.00
2019-03-17T06:32:06.286Z,1244.00
2019-03-17T06:33:06.326Z,1248.00
2019-03-17T06:34:06.278Z,1248.00
2019-03-17T06:35:06.275Z,1252.00
2019-03-17T06:36:06.256Z,1244.00
2019-03-17T06:37:06.225Z,1240.00
2019-03-17T06:38:06.573Z,1208.00
2019-03-17T06:39:06.205Z,1196.00
2019-03-17T06:40:06.228Z,1212.00
2019-03-17T06:41:06.231Z,1280.00
2019-03-17T06:42:06.220Z,1328.00
2019-03-17T06:43:06.160Z,1364.00
2019-03-17T06:44:06.176Z,1352.00
2019-03-17T06:45:06.143Z,1320.00
2019-03-17T06:46:06.168Z,1392.00
2019-03-17T06:47:06.123Z,1516.00
2019-03-17T06:48:06.101Z,1632.00
2019-03-17T06:49:06.172Z,1704.00
2019-03-17T06:50:06.088Z,1792.00
2019-03-17T06:51:06.081Z,1924.00
2019-03-17T06:52:06.060Z,2120.00
2019-03-17T06:53:06.067Z,2332.00
2019-03-17T06:54:06.069Z,2340.00
2019-03-17T06:55:06.027Z,2324.00
2019-03-17T06:56:06.015Z,2340.00
2019-03-17T06:57:06.015Z,2328.00
2019-03-17T06:58:06.196Z,2320.00
2019-03-17T06:59:05.997Z,2204.00
2019-03-17T07:00:06.007Z,2044.00
2019-03-17T07:01:05.972Z,1848.00
2019-03-17T07:02:05.954Z,1676.00
2019-03-17T07:03:05.958Z,1500.00
2019-03-17T07:04:05.947Z,1472.00
2019-03-17T07:05:05.937Z,1424.00
2019-03-17T07:06:05.901Z,1388.00
2019-03-17T07:07:05.891Z,1412.00
2019-03-17T07:08:05.915Z,1464.00
2019-03-17T07:09:05.866Z,1536.00
2019-03-17T07:10:05.875Z,1568.00
2019-03-17T07:11:05.847Z,1560.00
2019-03-17T07:12:05.842Z,1496.00
2019-03-17T07:13:05.835Z,1404.00
2019-03-17T07:14:05.825Z,1444.00
2019-03-17T07:15:05.810Z,1356.00
2019-03-17T07:16:05.816Z,1240.00
2019-03-17T07:17:05.782Z,1200.00
2019-03-17T07:18:05.836Z,1192.00
2019-03-17T07:19:05.784Z,1212.00
2019-03-17T07:20:05.767Z,1204.00
2019-03-17T07:21:05.732Z,1156.00
2019-03-17T07:22:05.737Z,1132.00
2019-03-17T07:23:05.726Z,1160.00
2019-03-17T07:24:05.724Z,1204.00
2019-03-17T07:25:05.696Z,1224.00
2019-03-17T07:26:05.686Z,1256.00
2019-03-17T07:27:05.671Z,1300.00
2019-03-17T07:28:05.658Z,1316.00
2019-03-17T07:29:05.653Z,1324.00
2019-03-17T07:30:05.630Z,1356.00
2019-03-17T07:31:05.637Z,1404.00
2019-03-17T07:32:05.789Z,1520.00
2019-03-17T07:33:05.610Z,1668.00
2019-03-17T07:34:05.585Z,1764.00
2019-03-17T07:35:05.593Z,1768.00
2019-03-17T07:36:05.596Z,1676.00
2019-03-17T07:37:05.559Z,1688.00
2019-03-17T07:38:05.599Z,1568.00
2019-03-17T07:39:11.752Z,1508.00
2019-03-17T07:40:06.531Z,1512.00
2019-03-17T07:41:05.512Z,1436.00
2019-03-17T07:42:05.522Z,1444.00
2019-03-17T07:43:05.523Z,1520.00
2019-03-17T07:44:05.489Z,1512.00
2019-03-17T07:45:05.487Z,1612.00
2019-03-17T07:46:05.456Z,1856.00
2019-03-17T07:47:05.448Z,2244.00
2019-03-17T07:48:05.476Z,2556.00
2019-03-17T07:49:05.420Z,2752.00
2019-03-17T07:50:05.419Z,2492.00
2019-03-17T07:51:05.403Z,2308.00
2019-03-17T07:52:05.383Z,2240.00
2019-03-17T07:53:05.377Z,2212.00
2019-03-17T07:54:05.382Z,2140.00
2019-03-17T07:55:05.358Z,2052.00
2019-03-17T07:56:05.343Z,2112.00
2019-03-17T07:57:05.331Z,2088.00
2019-03-17T07:58:05.323Z,2100.00
2019-03-17T07:59:05.326Z,2080.00
2019-03-17T08:00:05.328Z,2112.00
2019-03-17T08:01:05.298Z,2108.00
2019-03-17T08:02:05.272Z,2132.00
2019-03-17T08:03:05.282Z,2140.00
2019-03-17T08:04:05.254Z,2168.00
2019-03-17T08:05:05.258Z,2200.00
2019-03-17T08:06:05.227Z,2248.00
2019-03-17T08:07:05.276Z,2316.00
2019-03-17T08:08:09.765Z,2388.00
2019-03-17T08:09:05.203Z,2476.00
2019-03-17T08:10:05.191Z,2532.00
2019-03-17T08:11:05.176Z,2532.00
2019-03-17T08:12:05.161Z,2620.00
2019-03-17T08:13:05.147Z,2580.00
2019-03-17T08:14:05.154Z,2548.00
2019-03-17T08:15:05.132Z,2468.00
2019-03-17T08:16:05.194Z,2384.00
2019-03-17T08:17:05.106Z,2340.00
2019-03-17T08:18:05.095Z,2348.00
2019-03-17T08:19:05.109Z,2412.00
2019-03-17T08:20:05.074Z,2328.00
2019-03-17T08:21:05.072Z,2260.00
2019-03-17T08:22:05.047Z,2412.00
2019-03-17T08:23:05.037Z,2408.00
2019-03-17T08:24:05.043Z,2504.00
2019-03-17T08:25:05.055Z,2480.00
2019-03-17T08:26:05.003Z,2556.00
2019-03-17T08:27:05.002Z,2660.00
2019-03-17T08:28:04.989Z,3120.00
2019-03-17T08:29:04.983Z,3716.00
2019-03-17T08:30:04.985Z,3824.00
2019-03-17T08:31:04.985Z,4104.00
2019-03-17T08:32:04.946Z,3912.00
2019-03-17T08:33:04.940Z,4472.00
2019-03-17T08:34:04.923Z,4264.00
2019-03-17T08:35:04.928Z,5152.00
2019-03-17T08:36:04.897Z,5180.00
2019-03-17T08:37:04.975Z,4796.00
2019-03-17T08:38:04.889Z,5096.00
2019-03-17T08:39:04.919Z,5860.00
2019-03-17T08:40:04.842Z,4992.00
2019-03-17T08:41:04.847Z,5376.00
2019-03-17T08:42:04.831Z,5080.00
2019-03-17T08:43:04.808Z,4628.00
2019-03-17T08:44:04.812Z,4220.00
2019-03-17T08:45:04.859Z,4680.00
2019-03-17T08:46:04.784Z,5820.00
2019-03-17T08:47:04.811Z,5816.00
2019-03-17T08:48:04.756Z,5552.00
2019-03-17T08:49:04.753Z,5116.00
2019-03-17T08:50:04.729Z,3540.00
2019-03-17T08:51:04.718Z,3268.00
2019-03-17T08:52:04.726Z,3108.00
2019-03-17T08:53:04.695Z,2856.00
2019-03-17T08:54:04.697Z,2892.00
2019-03-17T08:55:04.723Z,2984.00
2019-03-17T08:56:04.664Z,2500.00
2019-03-17T08:57:04.654Z,2304.00
2019-03-17T08:58:04.662Z,2488.00
2019-03-17T08:59:04.667Z,2436.00
2019-03-17T09:00:04.624Z,2428.00
2019-03-17T09:01:04.732Z,2400.00
2019-03-17T09:02:04.590Z,2492.00
2019-03-17T09:03:11.455Z,2512.00
2019-03-17T09:04:04.567Z,2232.00
2019-03-17T09:05:04.561Z,2340.00
2019-03-17T09:06:04.554Z,2304.00
2019-03-17T09:07:04.539Z,2248.00
2019-03-17T09:08:04.580Z,2196.00
2019-03-17T09:09:04.528Z,2192.00
2019-03-17T09:10:04.512Z,2144.00
2019-03-17T09:11:04.749Z,2112.00
2019-03-17T09:12:04.513Z,2152.00
2019-03-17T09:13:04.578Z,2064.00
2019-03-17T09:14:04.482Z,2112.00
2019-03-17T09:15:04.538Z,2088.00
2019-03-17T09:16:04.470Z,2084.00
2019-03-17T09:17:13.643Z,2132.00
2019-03-17T09:18:05.420Z,2124.00
2019-03-17T09:19:05.109Z,2156.00
2019-03-17T09:20:05.239Z,2160.00
2019-03-17T09:21:05.141Z,2176.00
2019-03-17T09:22:04.532Z,2476.00
2019-03-17T09:23:04.803Z,2180.00
2019-03-17T09:24:16.286Z,1652.00
2019-03-17T09:26:14.704Z,2184.00
2019-03-17T09:27:14.655Z,2176.00
2019-03-17T09:28:14.695Z,2184.00
2019-03-17T09:29:14.676Z,2052.00
2019-03-17T09:30:14.791Z,2216.00
2019-03-17T09:31:21.343Z,2532.00
2019-03-17T09:32:14.586Z,2880.00
2019-03-17T09:33:14.693Z,2500.00
2019-03-17T09:34:14.603Z,2124.00
2019-03-17T09:35:14.552Z,2028.00
2019-03-17T09:36:14.544Z,2048.00
2019-03-17T09:37:14.611Z,2384.00
2019-03-17T09:38:14.540Z,2616.00
2019-03-17T09:39:14.521Z,2436.00
2019-03-17T09:40:14.497Z,2288.00
2019-03-17T09:41:14.492Z,2552.00
2019-03-17T09:42:14.502Z,2620.00
2019-03-17T09:43:14.478Z,3832.00
2019-03-17T09:44:14.451Z,3832.00
2019-03-17T09:45:14.474Z,5812.00
2019-03-17T09:46:14.429Z,5816.00
2019-03-17T09:47:14.418Z,5344.00
2019-03-17T09:48:14.432Z,5176.00
2019-03-17T09:49:14.431Z,5960.00
2019-03-17T09:50:14.394Z,6468.00
2019-03-17T09:51:14.404Z,6496.00
2019-03-17T09:52:14.365Z,6104.00
2019-03-17T09:53:14.385Z,5456.00
2019-03-17T09:54:14.788Z,5648.00
2019-03-17T09:55:14.395Z,6148.00
2019-03-17T09:56:14.491Z,7900.00
2019-03-17T09:57:14.377Z,8588.00
2019-03-17T09:58:14.475Z,8036.00
2019-03-17T09:59:14.406Z,6424.00
2019-03-17T10:00:14.344Z,4400.00
2019-03-17T10:01:14.332Z,3536.00
2019-03-17T10:02:16.293Z,3596.00
2019-03-17T10:03:14.638Z,4848.00
2019-03-17T10:04:30.853Z,6096.00
2019-03-17T10:05:17.903Z,6260.00
2019-03-17T10:06:21.772Z,6776.00
2019-03-17T10:07:36.445Z,6876.00
2019-03-17T10:08:20.368Z,6472.00
2019-03-17T10:09:17.472Z,5456.00
2019-03-17T10:10:18.847Z,5592.00
2019-03-17T10:11:19.017Z,5300.00
2019-03-17T10:12:15.510Z,4792.00
2019-03-17T10:13:18.687Z,4464.00
2019-03-17T10:14:21.455Z,4852.00
2019-03-17T10:15:17.748Z,5964.00
2019-03-17T10:16:15.013Z,6044.00
2019-03-17T10:17:16.350Z,5712.00
2019-03-17T10:18:18.495Z,5440.00
2019-03-17T10:19:14.416Z,5032.00
2019-03-17T10:20:14.814Z,4296.00
2019-03-17T10:21:14.245Z,4552.00
2019-03-17T10:22:16.097Z,4392.00
2019-03-17T10:23:14.565Z,4596.00
2019-03-17T10:24:17.393Z,4596.00
2019-03-17T10:25:14.134Z,5224.00
2019-03-17T10:26:14.895Z,5152.00
2019-03-17T10:27:15.413Z,3792.00
2019-03-17T10:28:38.181Z,3172.00
2019-03-17T10:29:22.284Z,3352.00
2019-03-17T10:30:17.881Z,3604.00
2019-03-17T10:31:16.974Z,4036.00
2019-03-17T10:32:14.004Z,4824.00
2019-03-17T10:33:13.903Z,4608.00
2019-03-17T10:34:15.417Z,3864.00
2019-03-17T10:35:15.108Z,3944.00
2019-03-17T10:36:15.569Z,3856.00
2019-03-17T10:39:12.687Z,5424.00
2019-03-17T10:40:12.172Z,6160.00
2019-03-17T10:41:25.782Z,6224.00
2019-03-17T10:42:13.453Z,5920.00
2019-03-17T10:43:40.533Z,5940.00
2019-03-17T10:44:20.429Z,5852.00
2019-03-17T10:45:13.617Z,5312.00
2019-03-17T10:46:16.417Z,4860.00
2019-03-17T10:47:16.801Z,4456.00
2019-03-17T10:48:15.978Z,4644.00
2019-03-17T10:49:11.716Z,4612.00
2019-03-17T10:50:11.112Z,4604.00
2019-03-17T10:51:10.986Z,5592.00
2019-03-17T10:52:10.972Z,6456.00
2019-03-17T10:53:11.050Z,6332.00
2019-03-17T10:54:10.986Z,5776.00
2019-03-17T10:55:11.070Z,5604.00
2019-03-17T10:56:10.892Z,6168.00
2019-03-17T10:57:10.926Z,6008.00
2019-03-17T10:58:10.876Z,7228.00
2019-03-17T10:59:14.058Z,7652.00
2019-03-17T11:00:16.936Z,7352.00
2019-03-17T11:01:32.969Z,7868.00
2019-03-17T11:02:12.950Z,7840.00
2019-03-17T11:03:11.108Z,6840.00
2019-03-17T11:04:10.859Z,5912.00
2019-03-17T11:05:10.804Z,5396.00
2019-03-17T11:06:10.819Z,4936.00
2019-03-17T11:07:10.826Z,4976.00
2019-03-17T11:08:10.794Z,5336.00
2019-03-17T11:09:10.955Z,4848.00
2019-03-17T11:10:10.753Z,4656.00
2019-03-17T11:11:12.088Z,4308.00
2019-03-17T11:12:10.719Z,3944.00
2019-03-17T11:13:10.711Z,3968.00
2019-03-17T11:14:10.826Z,3924.00
2019-03-17T11:15:11.565Z,5892.00
2019-03-17T11:16:10.676Z,8056.00
2019-03-17T11:17:10.860Z,8368.00
2019-03-17T11:18:22.528Z,8548.00
2019-03-17T11:19:11.751Z,8220.00
2019-03-17T11:20:10.629Z,7936.00
2019-03-17T11:21:10.613Z,7228.00
2019-03-17T11:22:10.580Z,6604.00
2019-03-17T11:23:10.623Z,6416.00
2019-03-17T11:24:10.650Z,7064.00
2019-03-17T11:25:10.768Z,8160.00
2019-03-17T11:26:10.589Z,8232.00
2019-03-17T11:27:10.544Z,7164.00
2019-03-17T11:28:10.574Z,6024.00
2019-03-17T11:29:10.515Z,6676.00
2019-03-17T11:30:20.564Z,6836.00
2019-03-17T11:31:10.484Z,7284.00
2019-03-17T11:32:10.560Z,7636.00
2019-03-17T11:33:10.541Z,7796.00
2019-03-17T11:34:10.494Z,7816.00
2019-03-17T11:35:10.965Z,7828.00
2019-03-17T11:36:10.506Z,7108.00
2019-03-17T11:37:10.486Z,6196.00
2019-03-17T11:38:10.473Z,7152.00
2019-03-17T11:39:10.418Z,7100.00
2019-03-17T11:40:10.459Z,7276.00
2019-03-17T11:41:10.441Z,6948.00
2019-03-17T11:42:10.418Z,6024.00
2019-03-17T11:43:10.363Z,5108.00
2019-03-17T11:44:10.364Z,5056.00
2019-03-17T11:45:10.363Z,5336.00
2019-03-17T11:46:10.321Z,4048.00
2019-03-17T11:47:10.308Z,3828.00
2019-03-17T11:48:10.301Z,2988.00
2019-03-17T11:49:10.306Z,2888.00
2019-03-17T11:50:10.422Z,3568.00
2019-03-17T11:51:11.132Z,3088.00
2019-03-17T11:52:10.341Z,3020.00
2019-03-17T11:53:10.269Z,3208.00
2019-03-17T11:54:10.242Z,4052.00
2019-03-17T11:55:10.272Z,3368.00
2019-03-17T11:56:10.219Z,2560.00
2019-03-17T11:57:10.189Z,2356.00
2019-03-17T11:58:10.507Z,1996.00
2019-03-17T11:59:10.208Z,1808.00
2019-03-17T12:00:10.215Z,1864.00
2019-03-17T12:01:10.894Z,2024.00
2019-03-17T12:02:10.635Z,2648.00
2019-03-17T12:03:11.312Z,2572.00
2019-03-17T12:04:10.357Z,2984.00
2019-03-17T12:05:10.845Z,5268.00
2019-03-17T12:06:10.412Z,5508.00
2019-03-17T12:07:10.243Z,4288.00
2019-03-17T12:08:10.152Z,3644.00
2019-03-17T12:09:10.229Z,4240.00
2019-03-17T12:10:10.067Z,4812.00
2019-03-17T12:11:10.752Z,5856.00
2019-03-17T12:12:10.054Z,5184.00
2019-03-17T12:13:10.004Z,5552.00
2019-03-17T12:14:10.080Z,5164.00
2019-03-17T12:15:10.007Z,6860.00
2019-03-17T12:16:09.973Z,6188.00
2019-03-17T12:17:10.023Z,5856.00
2019-03-17T12:18:10.252Z,5600.00
2019-03-17T12:19:09.931Z,3840.00
2019-03-17T12:20:09.992Z,3988.00
2019-03-17T12:21:10.056Z,4080.00
2019-03-17T12:22:09.981Z,3856.00
2019-03-17T12:23:09.923Z,4272.00
2019-03-17T12:24:28.713Z,5424.00
2019-03-17T12:28:55.385Z,4684.00
2019-03-17T12:29:55.459Z,4740.00
2019-03-17T12:30:55.388Z,3532.00
2019-03-17T12:31:56.256Z,3912.00
2019-03-17T12:33:01.732Z,3724.00
2019-03-17T12:33:56.428Z,4384.00
2019-03-17T12:35:36.753Z,3952.00
2019-03-17T12:36:01.373Z,4404.00
2019-03-17T12:36:56.561Z,3484.00
2019-03-17T12:37:57.196Z,2908.00
2019-03-17T12:39:02.806Z,2816.00
2019-03-17T12:42:05.632Z,1948.00
2019-03-17T12:43:03.947Z,2272.00
2019-03-17T12:44:10.840Z,2952.00
2019-03-17T12:45:03.291Z,3548.00
2019-03-17T12:46:03.193Z,2564.00
2019-03-17T12:47:03.188Z,2404.00